Priozersk, Russia
Current Conditions -  °F | °C
As of 9:20 PM on Sunday 23 Nov 2014 (Local Time) from EFLP Reporting Station
Haze Haze  
Wind Chill: 27°   Ceiling: 100
Heat Index: 27°   Visibility: 0.75mi
Dew Point: 27°   Wind: 2mph
Humidity: 100%   Direction: 120°ESE
Pressure: 30.53"   Gusts: NA
Location:  61.04°N, 30.14°E
Report Text: EFLP 231820Z 12002KT 1200 R06/1000VP1500D R24/0750V1000D BR OVC001M03/M03 Q1034
Loading
Personal Weather Stations






























Interactive Weather Map New forecast layout! Learn more

10-Day Weather Forecast

Advertisements
Track Severe Weather on mobile